createdAt,value
2022-08-28T00:00:25.806Z,102261.53
2022-08-28T00:02:53.703Z,102266.66
2022-08-28T00:05:23.004Z,102265.63
2022-08-28T00:07:50.199Z,102261.94
2022-08-28T00:10:20.084Z,102253.03
2022-08-28T00:12:51.789Z,102254.56
2022-08-28T00:15:23.309Z,102249.19
2022-08-28T00:17:50.557Z,102251.13
2022-08-28T00:20:19.964Z,102252.25
2022-08-28T00:22:47.651Z,102249.03
2022-08-28T00:25:16.798Z,102256.00
2022-08-28T00:27:52.751Z,102256.91
2022-08-28T00:30:36.069Z,102254.31
2022-08-28T00:33:09.664Z,102249.81
2022-08-28T00:35:38.488Z,102244.50
2022-08-28T00:38:06.056Z,102241.31
2022-08-28T00:40:34.220Z,102244.09
2022-08-28T00:43:03.391Z,102245.88
2022-08-28T00:45:34.849Z,102249.41
2022-08-28T00:48:04.314Z,102242.38
2022-08-28T00:50:52.589Z,102243.31
2022-08-28T00:53:20.564Z,102247.88
2022-08-28T00:55:50.534Z,102238.72
2022-08-28T00:58:18.045Z,102239.00
2022-08-28T01:00:44.852Z,102232.75
2022-08-28T01:03:11.753Z,102224.91
2022-08-28T01:05:43.531Z,102229.31
2022-08-28T01:08:10.368Z,102219.88
2022-08-28T01:10:40.568Z,102222.81
2022-08-28T01:13:07.590Z,102223.19
2022-08-28T01:15:37.670Z,102219.94
2022-08-28T01:18:08.514Z,102230.00
2022-08-28T01:20:41.832Z,102236.31
2022-08-28T01:24:07.469Z,102246.13
2022-08-28T01:26:34.301Z,102245.16
2022-08-28T01:29:01.914Z,102247.78
2022-08-28T01:31:31.512Z,102254.63
2022-08-28T01:34:01.684Z,102260.72
2022-08-28T01:36:29.612Z,102257.19
2022-08-28T01:39:01.356Z,102264.19
2022-08-28T01:41:29.609Z,102253.53
2022-08-28T01:43:57.058Z,102255.28
2022-08-28T01:46:23.888Z,102246.50
2022-08-28T01:48:50.776Z,102250.16
2022-08-28T01:51:21.479Z,102249.84
2022-08-28T01:53:51.525Z,102245.19
2022-08-28T01:56:19.210Z,102238.03
2022-08-28T01:58:48.204Z,102239.66
2022-08-28T02:01:19.943Z,102233.47
2022-08-28T02:03:47.660Z,102233.31
2022-08-28T02:06:15.991Z,102232.41
2022-08-28T02:08:42.756Z,102231.69
2022-08-28T02:11:10.362Z,102232.63
2022-08-28T02:13:38.116Z,102227.31
2022-08-28T02:16:08.776Z,102225.38
2022-08-28T02:18:36.710Z,102218.50
2022-08-28T02:21:04.994Z,102224.56
2022-08-28T02:23:32.196Z,102222.09
2022-08-28T02:25:59.016Z,102216.81
2022-08-28T02:28:25.791Z,102215.03
2022-08-28T02:30:52.635Z,102216.03
2022-08-28T02:33:19.441Z,102220.41
2022-08-28T02:35:46.342Z,102225.63
2022-08-28T02:38:14.146Z,102214.28
2022-08-28T02:40:41.391Z,102214.16
2022-08-28T02:43:08.315Z,102210.75
2022-08-28T02:45:35.813Z,102213.16
2022-08-28T02:48:03.279Z,102208.75
2022-08-28T02:50:31.493Z,102209.78
2022-08-28T02:52:58.691Z,102210.84
2022-08-28T02:55:25.892Z,102221.63
2022-08-28T02:57:52.884Z,102215.38
2022-08-28T03:00:23.995Z,102215.03
2022-08-28T03:02:51.848Z,102217.59
2022-08-28T03:05:21.352Z,102220.03
2022-08-28T03:07:48.842Z,102217.81
2022-08-28T03:10:16.381Z,102212.06
2022-08-28T03:12:43.184Z,102206.63
2022-08-28T03:15:10.336Z,102205.50
2022-08-28T03:17:37.278Z,102203.44
2022-08-28T03:20:06.755Z,102200.88
2022-08-28T03:22:52.080Z,102202.78
2022-08-28T03:25:19.005Z,102192.50
2022-08-28T03:27:45.761Z,102190.16
2022-08-28T03:30:14.484Z,102195.44
2022-08-28T03:32:41.296Z,102189.69
2022-08-28T03:35:08.377Z,102187.13
2022-08-28T03:37:35.792Z,102192.66
2022-08-28T03:40:03.533Z,102191.28
2022-08-28T03:42:31.134Z,102190.41
2022-08-28T03:44:59.337Z,102193.94
2022-08-28T03:47:28.320Z,102194.75
2022-08-28T03:49:59.939Z,102203.47
2022-08-28T03:52:27.048Z,102199.84
2022-08-28T03:54:55.207Z,102202.66
2022-08-28T03:57:23.766Z,102208.22
2022-08-28T03:59:52.569Z,102206.16
2022-08-28T04:02:20.551Z,102204.75
2022-08-28T04:04:49.140Z,102211.16
2022-08-28T04:07:17.740Z,102210.63
2022-08-28T04:09:44.953Z,102216.00
2022-08-28T04:12:11.989Z,102214.94
2022-08-28T04:14:38.841Z,102221.97
2022-08-28T04:17:06.789Z,102225.50
2022-08-28T04:19:33.801Z,102225.34
2022-08-28T04:22:01.260Z,102228.56
2022-08-28T04:24:28.105Z,102220.56
2022-08-28T04:26:54.867Z,102219.75
2022-08-28T04:29:22.998Z,102228.66
2022-08-28T04:31:50.481Z,102243.84
2022-08-28T04:34:17.992Z,102241.09
2022-08-28T04:36:46.053Z,102247.16
2022-08-28T04:39:13.253Z,102250.81
2022-08-28T04:41:40.501Z,102247.38
2022-08-28T04:44:07.346Z,102249.16
2022-08-28T04:46:34.601Z,102244.91
2022-08-28T04:49:01.351Z,102256.03
2022-08-28T04:51:28.832Z,102234.66
2022-08-28T04:53:56.766Z,102237.94
2022-08-28T04:56:24.316Z,102245.81
2022-08-28T04:58:51.300Z,102237.47
2022-08-28T05:01:24.565Z,102231.06
2022-08-28T05:03:57.432Z,102230.31
2022-08-28T05:06:28.613Z,102231.81
2022-08-28T05:09:00.664Z,102236.16
2022-08-28T05:11:34.650Z,102245.47
2022-08-28T05:14:04.714Z,102235.84
2022-08-28T05:16:32.382Z,102232.31
2022-08-28T05:19:01.290Z,102228.63
2022-08-28T05:21:28.362Z,102225.91
2022-08-28T05:23:57.468Z,102204.75
2022-08-28T05:26:27.008Z,102206.66
2022-08-28T05:28:56.948Z,102193.88
2022-08-28T05:31:25.887Z,102192.63
2022-08-28T05:33:53.614Z,102193.78
2022-08-28T05:36:22.760Z,102202.91
2022-08-28T05:38:51.236Z,102200.22
2022-08-28T05:41:24.285Z,102202.63
2022-08-28T05:43:52.935Z,102186.63
2022-08-28T05:46:20.697Z,102185.16
2022-08-28T05:48:49.419Z,102190.97
2022-08-28T05:51:22.815Z,102192.34
2022-08-28T05:53:50.195Z,102193.72
2022-08-28T05:56:20.694Z,102194.19
2022-08-28T05:58:48.138Z,102211.16
2022-08-28T06:01:22.457Z,102215.22
2022-08-28T06:04:00.940Z,102211.38
2022-08-28T06:06:30.018Z,102208.06
2022-08-28T06:09:19.217Z,102196.84
2022-08-28T06:11:46.759Z,102191.44
2022-08-28T06:14:17.401Z,102193.38
2022-08-28T06:16:47.285Z,102189.69
2022-08-28T06:19:16.947Z,102175.78
2022-08-28T06:21:44.705Z,102174.13
2022-08-28T06:24:12.191Z,102165.16
2022-08-28T06:26:39.173Z,102167.78
2022-08-28T06:29:09.667Z,102157.28
2022-08-28T06:31:37.258Z,102162.66
2022-08-28T06:34:04.523Z,102163.75
2022-08-28T06:36:33.845Z,102165.56
2022-08-28T06:39:02.773Z,102170.38
2022-08-28T06:41:32.104Z,102172.25
2022-08-28T06:43:59.901Z,102168.25
2022-08-28T06:46:30.310Z,102152.91
2022-08-28T06:48:57.151Z,102158.13
2022-08-28T06:51:24.996Z,102152.59
2022-08-28T06:53:52.067Z,102151.59
2022-08-28T06:56:26.535Z,102154.56
2022-08-28T06:58:56.164Z,102148.03
2022-08-28T07:01:29.528Z,102146.66
2022-08-28T07:03:59.638Z,102158.94
2022-08-28T07:06:27.572Z,102152.94
2022-08-28T07:08:54.366Z,102155.22
2022-08-28T07:11:28.907Z,102148.50
2022-08-28T07:13:57.508Z,102149.41
2022-08-28T07:16:27.705Z,102148.94
2022-08-28T07:18:54.639Z,102148.72
2022-08-28T07:21:22.119Z,102153.97
2022-08-28T07:23:49.160Z,102156.75
2022-08-28T07:26:19.237Z,102167.88
2022-08-28T07:28:46.539Z,102172.09
2022-08-28T07:31:16.440Z,102178.00
2022-08-28T07:33:43.736Z,102176.69
2022-08-28T07:36:29.232Z,102180.63
2022-08-28T07:38:59.064Z,102176.03
2022-08-28T07:41:30.077Z,102175.81
2022-08-28T07:44:16.076Z,102173.53
2022-08-28T07:46:43.384Z,102166.72
2022-08-28T07:49:11.447Z,102168.53
2022-08-28T07:51:38.416Z,102180.44
2022-08-28T07:54:05.592Z,102176.19
2022-08-28T07:56:33.147Z,102174.94
2022-08-28T07:59:03.247Z,102175.59
2022-08-28T08:01:30.900Z,102174.72
2022-08-28T08:04:01.285Z,102173.75
2022-08-28T08:06:33.065Z,102179.34
2022-08-28T08:09:02.631Z,102179.78
2022-08-28T08:11:32.567Z,102188.53
2022-08-28T08:14:05.475Z,102188.09
2022-08-28T08:16:35.576Z,102189.72
2022-08-28T08:19:03.437Z,102192.06
2022-08-28T08:21:30.833Z,102179.75
2022-08-28T08:23:58.266Z,102191.75
2022-08-28T08:26:28.270Z,102181.50
2022-08-28T08:28:56.087Z,102180.81
2022-08-28T08:31:33.208Z,102188.09
2022-08-28T08:34:02.592Z,102181.75
2022-08-28T08:36:31.749Z,102194.13
2022-08-28T08:39:00.406Z,102199.81
2022-08-28T08:41:51.116Z,102191.88
2022-08-28T08:44:45.476Z,102194.16
2022-08-28T08:47:19.400Z,102207.25
2022-08-28T08:50:24.161Z,102204.75
2022-08-28T08:52:56.883Z,102198.09
2022-08-28T08:55:28.495Z,102207.19
2022-08-28T08:58:06.669Z,102205.69
2022-08-28T09:00:39.486Z,102202.91
2022-08-28T09:03:38.574Z,102192.13
2022-08-28T09:06:56.468Z,102194.66
2022-08-28T09:09:42.278Z,102199.94
2022-08-28T09:12:14.916Z,102207.69
2022-08-28T09:14:50.044Z,102211.34
2022-08-28T09:17:19.913Z,102220.72
2022-08-28T09:19:46.780Z,102220.44
2022-08-28T09:22:13.579Z,102220.63
2022-08-28T09:24:41.993Z,102227.28
2022-08-28T09:27:23.483Z,102218.06
2022-08-28T09:30:02.544Z,102222.22
2022-08-28T09:32:44.588Z,102228.84
2022-08-28T09:35:29.445Z,102222.22
2022-08-28T09:38:15.932Z,102216.44
2022-08-28T09:41:01.373Z,102223.38
2022-08-28T09:43:28.822Z,102213.06
2022-08-28T09:46:05.743Z,102225.59
2022-08-28T09:48:43.678Z,102234.41
2022-08-28T09:51:30.522Z,102244.59
2022-08-28T09:54:08.123Z,102239.47
2022-08-28T09:56:40.913Z,102234.53
2022-08-28T09:59:16.973Z,102219.22
2022-08-28T10:01:51.423Z,102219.13
2022-08-28T10:04:40.669Z,102222.44
2022-08-28T10:07:13.741Z,102225.19
2022-08-28T10:09:58.854Z,102231.09
2022-08-28T10:12:32.516Z,102217.94
2022-08-28T10:15:04.733Z,102222.00
2022-08-28T10:17:34.393Z,102239.78
2022-08-28T10:20:10.334Z,102233.13
2022-08-28T10:23:00.809Z,102237.97
2022-08-28T10:25:51.992Z,102221.19
2022-08-28T10:28:27.959Z,102227.22
2022-08-28T10:31:26.824Z,102216.16
2022-08-28T10:34:30.666Z,102218.41
2022-08-28T10:37:14.193Z,102216.94
2022-08-28T10:39:57.808Z,102223.03
2022-08-28T10:42:38.226Z,102217.50
2022-08-28T10:45:15.214Z,102225.38
2022-08-28T10:47:47.060Z,102230.91
2022-08-28T10:50:28.251Z,102234.91
2022-08-28T10:53:09.986Z,102232.94
2022-08-28T10:55:48.593Z,102230.16
2022-08-28T10:58:25.103Z,102216.94
2022-08-28T11:01:01.093Z,102235.03
2022-08-28T11:03:36.680Z,102223.06
2022-08-28T11:06:31.454Z,102233.63
2022-08-28T11:09:20.685Z,102239.56
2022-08-28T11:11:49.111Z,102238.13
2022-08-28T11:14:28.546Z,102241.84
2022-08-28T11:17:01.579Z,102227.47
2022-08-28T11:19:59.124Z,102233.00
2022-08-28T11:22:37.830Z,102242.66
2022-08-28T11:25:26.643Z,102227.66
2022-08-28T11:28:24.075Z,102233.28
2022-08-28T11:31:06.219Z,102246.16
2022-08-28T11:33:45.432Z,102230.06
2022-08-28T11:36:32.593Z,102218.91
2022-08-28T11:39:15.803Z,102246.31
2022-08-28T11:42:10.482Z,102240.94
2022-08-28T11:44:45.987Z,102238.38
2022-08-28T11:47:38.311Z,102242.22
2022-08-28T11:50:15.900Z,102249.69
2022-08-28T11:52:52.830Z,102250.50
2022-08-28T11:55:29.246Z,102242.81
2022-08-28T12:01:09.565Z,102250.59
2022-08-28T12:03:44.794Z,102245.34
2022-08-28T12:06:13.286Z,102236.72
2022-08-28T12:08:47.619Z,102247.03
2022-08-28T12:11:39.309Z,102247.25
2022-08-28T12:14:26.329Z,102248.38
2022-08-28T12:16:59.308Z,102245.16
2022-08-28T12:19:28.757Z,102246.00
2022-08-28T12:21:56.591Z,102243.13
2022-08-28T12:24:24.072Z,102242.34
2022-08-28T12:26:56.215Z,102253.97
2022-08-28T12:29:34.912Z,102228.16
2022-08-28T12:32:27.721Z,102229.16
2022-08-28T12:34:57.493Z,102225.63
2022-08-28T12:37:52.422Z,102230.66
2022-08-28T12:40:29.776Z,102224.34
2022-08-28T12:43:00.137Z,102226.25
2022-08-28T12:45:33.025Z,102229.78
2022-08-28T12:48:04.854Z,102239.22
2022-08-28T12:50:36.524Z,102237.94
2022-08-28T12:53:07.374Z,102245.03
2022-08-28T12:55:34.926Z,102250.38
2022-08-28T12:58:01.796Z,102249.97
2022-08-28T13:00:34.898Z,102249.53
2022-08-28T13:03:02.823Z,102246.41
2022-08-28T13:05:31.585Z,102248.34
2022-08-28T13:08:02.538Z,102256.66
2022-08-28T13:10:34.073Z,102257.34
2022-08-28T13:13:10.964Z,102246.47
2022-08-28T13:15:51.851Z,102251.66
2022-08-28T13:18:42.249Z,102237.72
2022-08-28T13:21:33.036Z,102235.31
2022-08-28T13:24:21.396Z,102245.34
2022-08-28T13:26:50.401Z,102237.97
2022-08-28T13:29:21.518Z,102224.34
2022-08-28T13:32:01.458Z,102239.88
2022-08-28T13:34:33.732Z,102239.38
2022-08-28T13:37:15.051Z,102236.13
2022-08-28T13:39:47.692Z,102243.25
2022-08-28T13:42:17.946Z,102248.88
2022-08-28T13:44:55.648Z,102255.78
2022-08-28T13:47:22.725Z,102248.69
2022-08-28T13:49:49.549Z,102253.38
2022-08-28T13:52:16.637Z,102262.00
2022-08-28T13:54:45.259Z,102252.25
2022-08-28T13:57:13.693Z,102242.09
2022-08-28T13:59:41.076Z,102249.63
2022-08-28T14:02:30.592Z,102248.88
2022-08-28T14:04:57.492Z,102242.06
2022-08-28T14:07:24.428Z,102242.00
2022-08-28T14:09:56.009Z,102247.00
2022-08-28T14:12:32.726Z,102236.63
2022-08-28T14:15:01.768Z,102233.09
2022-08-28T14:17:29.029Z,102238.28
2022-08-28T14:19:56.148Z,102245.69
2022-08-28T14:22:22.973Z,102234.84
2022-08-28T14:24:49.759Z,102237.50
2022-08-28T14:27:17.798Z,102232.31
2022-08-28T14:29:44.599Z,102231.19
2022-08-28T14:32:11.485Z,102216.78
2022-08-28T14:34:38.425Z,102231.31
2022-08-28T14:37:06.318Z,102237.91
2022-08-28T14:39:33.659Z,102235.84
2022-08-28T14:42:01.611Z,102243.06
2022-08-28T14:44:28.382Z,102245.56
2022-08-28T14:46:57.221Z,102243.00
2022-08-28T14:49:26.954Z,102246.91
2022-08-28T14:51:55.016Z,102243.44
2022-08-28T14:54:24.105Z,102242.84
2022-08-28T14:56:52.726Z,102233.59
2022-08-28T14:59:24.420Z,102224.41
2022-08-28T15:01:52.759Z,102223.22
2022-08-28T15:04:22.739Z,102220.78
2022-08-28T15:06:51.317Z,102226.53
2022-08-28T15:09:19.449Z,102217.19
2022-08-28T15:11:46.399Z,102230.72
2022-08-28T15:14:13.469Z,102219.16
2022-08-28T15:16:43.833Z,102210.16
2022-08-28T15:19:13.171Z,102212.69
2022-08-28T15:21:46.432Z,102227.41
2022-08-28T15:24:15.889Z,102228.69
2022-08-28T15:26:43.296Z,102226.81
2022-08-28T15:29:11.916Z,102227.56
2022-08-28T15:31:45.698Z,102232.00
2022-08-28T15:34:21.569Z,102234.56
2022-08-28T15:36:55.257Z,102228.44
2022-08-28T15:39:46.116Z,102228.34
2022-08-28T15:42:13.922Z,102224.63
2022-08-28T15:44:40.730Z,102221.63
2022-08-28T15:47:08.159Z,102224.50
2022-08-28T15:49:43.334Z,102225.16
2022-08-28T15:52:13.747Z,102227.66
2022-08-28T15:54:41.474Z,102227.25
2022-08-28T15:57:08.216Z,102241.13
2022-08-28T15:59:44.166Z,102241.19
2022-08-28T16:02:16.469Z,102243.88
2022-08-28T16:04:43.348Z,102240.00
2022-08-28T16:07:10.146Z,102235.31
2022-08-28T16:09:36.898Z,102242.97
2022-08-28T16:12:04.103Z,102244.81
2022-08-28T16:14:34.054Z,102248.50
2022-08-28T16:17:05.804Z,102246.91
2022-08-28T16:19:40.970Z,102247.56
2022-08-28T16:22:13.143Z,102249.00
2022-08-28T16:24:39.929Z,102251.22
2022-08-28T16:27:10.658Z,102251.28
2022-08-28T16:29:41.535Z,102244.97
2022-08-28T16:32:08.391Z,102256.16
2022-08-28T16:34:35.600Z,102253.31
2022-08-28T16:37:03.873Z,102251.59
2022-08-28T16:39:30.629Z,102259.28
2022-08-28T16:41:57.508Z,102257.25
2022-08-28T16:44:26.305Z,102257.38
2022-08-28T16:46:54.200Z,102248.53
2022-08-28T16:49:22.391Z,102251.63
2022-08-28T16:51:49.469Z,102248.84
2022-08-28T16:54:18.280Z,102250.25
2022-08-28T16:56:46.127Z,102245.22
2022-08-28T16:59:16.476Z,102252.97
2022-08-28T17:01:43.464Z,102243.47
2022-08-28T17:04:10.880Z,102242.81
2022-08-28T17:06:37.773Z,102238.41
2022-08-28T17:09:04.626Z,102251.94
2022-08-28T17:11:32.051Z,102254.53
2022-08-28T17:13:59.292Z,102246.53
2022-08-28T17:16:30.151Z,102243.28
2022-08-28T17:18:58.660Z,102241.94
2022-08-28T17:21:44.028Z,102241.13
2022-08-28T17:24:14.597Z,102237.75
2022-08-28T17:26:42.560Z,102235.44
2022-08-28T17:29:09.624Z,102241.03
2022-08-28T17:31:37.376Z,102234.69
2022-08-28T17:34:05.667Z,102242.84
2022-08-28T17:36:34.286Z,102246.56
2022-08-28T17:39:10.439Z,102246.69
2022-08-28T17:41:39.310Z,102251.25
2022-08-28T17:44:06.347Z,102244.94
2022-08-28T17:46:37.738Z,102244.31
2022-08-28T17:49:07.020Z,102250.09
2022-08-28T17:51:43.618Z,102246.06
2022-08-28T17:54:18.345Z,102262.34
2022-08-28T17:56:46.374Z,102258.44
2022-08-28T17:59:14.352Z,102256.75
2022-08-28T18:01:42.925Z,102266.88
2022-08-28T18:04:10.833Z,102263.38
2022-08-28T18:06:37.950Z,102267.03
2022-08-28T18:09:05.785Z,102262.44
2022-08-28T18:11:33.078Z,102262.56
2022-08-28T18:14:00.789Z,102267.25
2022-08-28T18:16:31.447Z,102266.44
2022-08-28T18:18:59.825Z,102264.41
2022-08-28T18:21:27.624Z,102270.47
2022-08-28T18:23:54.752Z,102267.59
2022-08-28T18:26:21.590Z,102263.34
2022-08-28T18:28:48.644Z,102275.97
2022-08-28T18:31:18.112Z,102277.06
2022-08-28T18:33:45.181Z,102283.25
2022-08-28T18:36:13.830Z,102282.38
2022-08-28T18:38:41.952Z,102285.88
2022-08-28T18:41:09.652Z,102293.63
2022-08-28T18:43:36.727Z,102292.09
2022-08-28T18:46:04.903Z,102285.84
2022-08-28T18:48:32.435Z,102289.25
2022-08-28T18:50:59.275Z,102294.59
2022-08-28T18:53:26.511Z,102292.88
2022-08-28T18:55:55.114Z,102291.16
2022-08-28T18:58:22.999Z,102291.09
2022-08-28T19:00:50.164Z,102292.44
2022-08-28T19:03:17.427Z,102284.53
2022-08-28T19:05:44.258Z,102296.88
2022-08-28T19:08:11.502Z,102293.28
2022-08-28T19:10:38.488Z,102290.69
2022-08-28T19:13:05.893Z,102296.66
2022-08-28T19:15:34.173Z,102296.69
2022-08-28T19:18:01.715Z,102301.16
2022-08-28T19:20:29.626Z,102301.31
2022-08-28T19:22:58.191Z,102299.59
2022-08-28T19:25:28.359Z,102304.06
2022-08-28T19:28:01.545Z,102303.25
2022-08-28T19:30:33.857Z,102300.75
2022-08-28T19:33:02.461Z,102306.06
2022-08-28T19:35:29.469Z,102300.00
2022-08-28T19:37:56.437Z,102301.59
2022-08-28T19:40:23.750Z,102306.16
2022-08-28T19:42:50.977Z,102307.00
2022-08-28T19:45:18.334Z,102315.78
2022-08-28T19:47:45.730Z,102318.47
2022-08-28T19:50:14.516Z,102318.44
2022-08-28T19:52:43.173Z,102323.00
2022-08-28T19:55:17.699Z,102320.34
2022-08-28T19:57:46.679Z,102327.38
2022-08-28T20:00:16.351Z,102333.69
2022-08-28T20:02:43.619Z,102329.69
2022-08-28T20:05:11.094Z,102328.94
2022-08-28T20:07:38.135Z,102330.91
2022-08-28T20:10:05.862Z,102326.44
2022-08-28T20:12:33.024Z,102322.25
2022-08-28T20:15:03.238Z,102324.16
2022-08-28T20:17:30.760Z,102324.38
2022-08-28T20:20:02.288Z,102334.34
2022-08-28T20:22:29.580Z,102333.03
2022-08-28T20:24:56.332Z,102334.72
2022-08-28T20:27:23.706Z,102326.53
2022-08-28T20:29:50.513Z,102326.25
2022-08-28T20:32:17.334Z,102333.22
2022-08-28T20:34:44.710Z,102324.56
2022-08-28T20:37:11.588Z,102334.34
2022-08-28T20:39:41.513Z,102329.06
2022-08-28T20:42:09.859Z,102331.66
2022-08-28T20:44:36.810Z,102332.53
2022-08-28T20:47:04.737Z,102333.44
2022-08-28T20:49:31.719Z,102337.16
2022-08-28T20:52:01.037Z,102325.06
2022-08-28T20:54:34.490Z,102328.47
2022-08-28T20:57:04.970Z,102328.34
2022-08-28T20:59:35.519Z,102335.34
2022-08-28T21:02:09.061Z,102332.63
2022-08-28T21:04:37.529Z,102331.63
2022-08-28T21:07:05.842Z,102341.22
2022-08-28T21:09:33.413Z,102332.22
2022-08-28T21:12:20.083Z,102340.34
2022-08-28T21:14:51.373Z,102338.72
2022-08-28T21:17:28.981Z,102334.41
2022-08-28T21:19:58.533Z,102325.22
2022-08-28T21:22:25.359Z,102344.69
2022-08-28T21:24:52.136Z,102338.34
2022-08-28T21:27:18.878Z,102333.81
2022-08-28T21:29:46.024Z,102334.75
2022-08-28T21:32:13.188Z,102331.63
2022-08-28T21:34:40.050Z,102335.25
2022-08-28T21:37:06.794Z,102331.72
2022-08-28T21:39:34.767Z,102333.38
2022-08-28T21:42:01.757Z,102328.97
2022-08-28T21:44:29.025Z,102330.69
2022-08-28T21:46:55.875Z,102326.66
2022-08-28T21:49:23.069Z,102340.56
2022-08-28T21:51:50.562Z,102330.78
2022-08-28T21:54:18.229Z,102333.28
2022-08-28T21:56:46.000Z,102329.78
2022-08-28T21:59:12.956Z,102336.06
2022-08-28T22:01:39.990Z,102338.88
2022-08-28T22:04:07.413Z,102340.72
2022-08-28T22:06:34.641Z,102349.66
2022-08-28T22:09:02.293Z,102356.25
2022-08-28T22:11:29.134Z,102367.41
2022-08-28T22:13:56.758Z,102383.00
2022-08-28T22:16:25.216Z,102391.56
2022-08-28T22:18:52.136Z,102394.13
2022-08-28T22:21:41.446Z,102403.94
2022-08-28T22:24:10.336Z,102411.31
2022-08-28T22:26:37.868Z,102417.22
2022-08-28T22:29:05.865Z,102419.53
2022-08-28T22:31:32.956Z,102424.59
2022-08-28T22:33:59.774Z,102418.22
2022-08-28T22:36:29.259Z,102424.25
2022-08-28T22:38:57.059Z,102425.00
2022-08-28T22:41:25.264Z,102431.13
2022-08-28T22:43:53.529Z,102426.66
2022-08-28T22:46:21.033Z,102427.50
2022-08-28T22:48:48.700Z,102428.22
2022-08-28T22:51:20.784Z,102437.09
2022-08-28T22:53:47.922Z,102427.41
2022-08-28T22:56:17.095Z,102428.22
2022-08-28T22:58:44.674Z,102428.28
2022-08-28T23:01:15.508Z,102427.50
2022-08-28T23:03:42.846Z,102434.53
2022-08-28T23:06:09.719Z,102438.13
2022-08-28T23:08:36.576Z,102440.78
2022-08-28T23:11:03.647Z,102424.03
2022-08-28T23:13:31.296Z,102427.59
2022-08-28T23:15:58.520Z,102425.81
2022-08-28T23:18:25.338Z,102423.16
2022-08-28T23:20:52.505Z,102431.06
2022-08-28T23:23:20.144Z,102438.13
2022-08-28T23:25:47.273Z,102435.41
2022-08-28T23:28:14.029Z,102437.03
2022-08-28T23:30:44.030Z,102444.13
2022-08-28T23:33:23.114Z,102447.69
2022-08-28T23:35:52.099Z,102447.69
2022-08-28T23:38:19.326Z,102448.59
2022-08-28T23:40:48.112Z,102454.72
2022-08-28T23:43:15.442Z,102458.31
2022-08-28T23:45:43.583Z,102458.41
2022-08-28T23:48:11.256Z,102469.25
2022-08-28T23:50:41.301Z,102466.69
2022-08-28T23:53:08.313Z,102476.41
2022-08-28T23:55:36.303Z,102487.00
2022-08-28T23:58:03.240Z,102486.16
